Time,TemperatureF,DewpointF,PressureIn,WindDirection,WindDirectionDegrees,WindSpeedMPH,WindSpeedGustMPH,Humidity,HourlyPrecipIn,Conditions,Clouds,dailyrainin,SoftwareType,DateUTC
2013-09-30 00:12:00,52.0,48.0,29.43,SW,229,9.0,20.0,85,0.00,,,0.76,,2013-09-30 07:12:00,
2013-09-30 00:21:00,52.0,47.0,29.43,SW,226,12.0,26.0,83,0.00,,,0.76,,2013-09-30 07:21:00,
2013-09-30 00:42:00,51.0,44.0,29.44,South,174,12.0,23.0,78,0.00,,,0.76,,2013-09-30 07:42:00,
2013-09-30 00:53:00,51.0,45.0,29.46,WSW,239,12.0,26.0,81,0.00,,,0.76,,2013-09-30 07:53:00,
2013-09-30 01:12:00,50.0,46.0,29.46,South,188,12.0,22.0,86,0.01,,,0.77,,2013-09-30 08:12:00,
2013-09-30 01:22:00,50.0,47.0,29.47,South,186,8.0,15.0,89,0.01,,,0.76,,2013-09-30 08:22:00,
2013-09-30 01:42:00,50.0,46.0,29.46,SW,221,9.0,18.0,87,0.01,,,0.76,,2013-09-30 08:42:00,
2013-09-30 01:52:00,49.0,45.0,29.46,SW,226,10.0,20.0,87,0.01,,,0.76,,2013-09-30 08:52:00,
2013-09-30 02:11:00,49.0,46.0,29.47,South,171,13.0,23.0,88,0.00,,,0.76,,2013-09-30 09:11:00,
2013-09-30 02:22:00,48.0,45.0,29.50,SSW,198,8.0,19.0,91,0.02,,,0.74,,2013-09-30 09:22:00,
2013-09-30 02:53:00,49.0,46.0,29.50,SW,217,7.0,13.0,91,0.02,,,0.74,,2013-09-30 09:53:00,
2013-09-30 03:13:00,49.0,46.0,29.50,West,278,9.0,17.0,91,0.02,,,0.74,,2013-09-30 10:13:00,
2013-09-30 03:22:00,49.0,47.0,29.48,SSW,203,8.0,16.0,92,0.00,,,0.74,,2013-09-30 10:22:00,
2013-09-30 03:53:00,49.0,47.0,29.49,South,179,14.0,27.0,93,0.02,,,0.76,,2013-09-30 10:53:00,
2013-09-30 04:12:00,49.0,47.0,29.48,South,170,10.0,21.0,93,0.03,,,0.77,,2013-09-30 11:12:00,
2013-09-30 04:22:00,50.0,48.0,29.49,SSW,198,13.0,22.0,93,0.03,,,0.75,,2013-09-30 11:22:00,
2013-09-30 04:52:00,50.0,48.0,29.50,SSW,197,11.0,25.0,93,0.02,,,0.77,,2013-09-30 11:52:00,
2013-09-30 05:12:00,50.0,48.0,29.49,South,176,8.0,18.0,93,0.04,,,0.79,,2013-09-30 12:12:00,
2013-09-30 05:22:00,50.0,48.0,29.50,SSE,150,5.0,11.0,94,0.04,,,0.79,,2013-09-30 12:22:00,
2013-09-30 05:42:00,50.0,48.0,29.51,SSE,167,8.0,18.0,93,0.04,,,0.79,,2013-09-30 12:42:00,
2013-09-30 05:52:00,50.0,48.0,29.52,SE,141,5.0,12.0,93,0.02,,,0.79,,2013-09-30 12:52:00,
2013-09-30 06:11:00,50.0,47.0,29.52,SSW,211,9.0,17.0,91,0.00,,,0.79,,2013-09-30 13:11:00,
2013-09-30 06:22:00,50.0,47.0,29.52,South,186,10.0,16.0,90,0.00,,,0.79,,2013-09-30 13:22:00,
2013-09-30 06:42:00,50.0,47.0,29.53,SSW,197,9.0,16.0,90,0.00,,,0.79,,2013-09-30 13:42:00,
2013-09-30 06:52:00,51.0,48.0,29.54,WSW,241,9.0,18.0,89,0.00,,,0.79,,2013-09-30 13:52:00,
2013-09-30 07:11:00,50.0,47.0,29.54,WSW,252,7.0,16.0,91,0.01,,,0.80,,2013-09-30 14:11:00,
2013-09-30 07:22:00,50.0,48.0,29.54,SW,229,9.0,22.0,92,0.03,,,0.82,,2013-09-30 14:22:00,
2013-09-30 07:42:00,50.0,48.0,29.56,SSW,211,10.0,25.0,93,0.04,,,0.83,,2013-09-30 14:42:00,
2013-09-30 07:52:00,50.0,48.0,29.57,SSW,193,10.0,18.0,93,0.07,,,0.86,,2013-09-30 14:52:00,
2013-09-30 08:11:00,50.0,48.0,29.57,South,172,5.0,12.0,94,0.06,,,0.86,,2013-09-30 15:11:00,
2013-09-30 08:22:00,50.0,49.0,29.58,South,177,10.0,18.0,95,0.04,,,0.84,,2013-09-30 15:22:00,
2013-09-30 08:45:00,50.0,48.0,29.59,SW,217,9.0,15.0,94,0.03,,,0.84,,2013-09-30 15:45:00,
2013-09-30 08:54:00,50.0,48.0,29.62,SSW,200,8.0,16.0,94,0.00,,,0.84,,2013-09-30 15:54:00,
2013-09-30 09:14:00,51.0,49.0,29.63,South,186,6.0,17.0,94,0.00,,,0.84,,2013-09-30 16:14:00,
2013-09-30 09:24:00,51.0,49.0,29.63,SSW,212,7.0,15.0,94,0.00,,,0.84,,2013-09-30 16:24:00,
2013-09-30 09:44:00,51.0,49.0,29.64,SSE,155,8.0,15.0,92,0.00,,,0.84,,2013-09-30 16:44:00,
2013-09-30 09:53:00,51.0,48.0,29.65,South,184,9.0,18.0,91,0.00,,,0.84,,2013-09-30 16:53:00,
2013-09-30 10:13:00,52.0,49.0,29.65,SSE,168,7.0,18.0,91,0.00,,,0.84,,2013-09-30 17:13:00,
2013-09-30 10:22:00,52.0,49.0,29.65,SSW,205,8.0,16.0,90,0.00,,,0.84,,2013-09-30 17:22:00,
2013-09-30 10:43:00,53.0,50.0,29.67,SW,231,10.0,21.0,89,0.00,,,0.84,,2013-09-30 17:43:00,
2013-09-30 10:53:00,53.0,50.0,29.68,SSW,207,9.0,18.0,89,0.00,,,0.84,,2013-09-30 17:53:00,
2013-09-30 11:12:00,55.0,51.0,29.69,SE,137,8.0,19.0,87,0.00,,,0.84,,2013-09-30 18:12:00,
2013-09-30 11:22:00,55.0,51.0,29.70,SSE,165,8.0,18.0,87,0.00,,,0.81,,2013-09-30 18:22:00,
2013-09-30 11:32:00,55.0,51.0,29.70,SSE,165,8.0,18.0,87,0.00,,,0.81,,2013-09-30 18:32:00,
2013-09-30 11:53:00,53.0,50.0,29.72,West,280,7.0,24.0,89,0.16,,,0.97,,2013-09-30 18:53:00,
2013-09-30 12:12:00,49.0,46.0,29.72,SSW,212,8.0,13.0,89,0.26,,,1.07,,2013-09-30 19:12:00,
2013-09-30 12:22:00,49.0,46.0,29.73,SW,236,10.0,21.0,90,0.39,,,1.18,,2013-09-30 19:22:00,
2013-09-30 12:42:00,49.0,47.0,29.72,SW,233,7.0,13.0,92,0.46,,,1.25,,2013-09-30 19:42:00,
2013-09-30 12:53:00,49.0,46.0,29.73,SSW,194,9.0,17.0,91,0.30,,,1.26,,2013-09-30 19:53:00,
2013-09-30 13:12:00,50.0,47.0,29.74,SW,229,9.0,20.0,91,0.19,,,1.26,,2013-09-30 20:12:00,
2013-09-30 13:23:00,51.0,49.0,29.74,SSW,193,7.0,17.0,92,0.09,,,1.24,,2013-09-30 20:23:00,
2013-09-30 13:53:00,51.0,48.0,29.75,SSW,194,11.0,17.0,90,0.01,,,1.24,,2013-09-30 20:53:00,
2013-09-30 14:11:00,52.0,49.0,29.76,SW,215,7.0,16.0,90,0.00,,,1.24,,2013-09-30 21:11:00,
2013-09-30 14:22:00,53.0,50.0,29.77,SW,225,10.0,21.0,88,0.00,,,1.22,,2013-09-30 21:22:00,
2013-09-30 14:43:00,53.0,49.0,29.77,SE,137,8.0,19.0,87,0.00,,,1.22,,2013-09-30 21:43:00,
2013-09-30 14:54:00,54.0,50.0,29.78,South,181,10.0,25.0,86,0.00,,,1.22,,2013-09-30 21:54:00,
2013-09-30 15:13:00,53.0,50.0,29.79,SSW,207,11.0,20.0,88,0.01,,,1.23,,2013-09-30 22:13:00,
2013-09-30 15:23:00,53.0,49.0,29.79,SW,217,9.0,17.0,87,0.01,,,1.17,,2013-09-30 22:23:00,
2013-09-30 15:43:00,53.0,49.0,29.78,SSW,203,6.0,16.0,87,0.01,,,1.17,,2013-09-30 22:43:00,
2013-09-30 15:54:00,53.0,50.0,29.79,SSW,205,10.0,17.0,88,0.01,,,1.17,,2013-09-30 22:54:00,
2013-09-30 16:12:00,54.0,50.0,29.79,SSW,210,9.0,23.0,86,0.00,,,1.17,,2013-09-30 23:12:00,
2013-09-30 16:23:00,54.0,49.0,29.80,West,277,11.0,22.0,83,0.00,,,1.12,,2013-09-30 23:23:00,
2013-09-30 16:42:00,54.0,50.0,29.80,West,264,9.0,18.0,86,0.00,,,1.12,,2013-09-30 23:42:00,
2013-09-30 16:54:00,54.0,50.0,29.80,WSW,237,10.0,19.0,86,0.01,,,1.13,,2013-09-30 23:54:00,
2013-09-30 17:12:00,55.0,49.0,29.81,SSW,193,10.0,17.0,81,0.01,,,1.13,,2013-10-01 00:12:00,
2013-09-30 17:22:00,55.0,49.0,29.81,SSW,211,11.0,18.0,81,0.01,,,1.10,,2013-10-01 00:22:00,
2013-09-30 17:43:00,55.0,49.0,29.82,SW,217,10.0,23.0,80,0.01,,,1.10,,2013-10-01 00:43:00,
2013-09-30 17:52:00,54.0,49.0,29.83,ESE,117,11.0,20.0,83,0.00,,,1.10,,2013-10-01 00:52:00,
2013-09-30 18:12:00,53.0,49.0,29.83,WSW,237,10.0,21.0,85,0.00,,,1.10,,2013-10-01 01:12:00,
2013-09-30 18:21:00,52.0,49.0,29.83,SSW,203,10.0,23.0,88,0.00,,,1.08,,2013-10-01 01:21:00,
2013-09-30 18:42:00,51.0,48.0,29.83,South,184,9.0,15.0,88,0.01,,,1.09,,2013-10-01 01:42:00,
2013-09-30 18:52:00,51.0,48.0,29.84,SSE,165,10.0,16.0,88,0.01,,,1.09,,2013-10-01 01:52:00,
2013-09-30 19:12:00,51.0,48.0,29.85,SE,139,9.0,19.0,90,0.01,,,1.09,,2013-10-01 02:12:00,
2013-09-30 19:22:00,51.0,48.0,29.85,WSW,238,7.0,15.0,89,0.01,,,1.07,,2013-10-01 02:22:00,
2013-09-30 19:42:00,51.0,48.0,29.85,South,186,8.0,17.0,88,0.00,,,1.07,,2013-10-01 02:42:00,
2013-09-30 19:52:00,50.0,46.0,29.85,South,175,6.0,19.0,87,0.00,,,1.07,,2013-10-01 02:52:00,
2013-09-30 20:12:00,50.0,47.0,29.86,South,183,8.0,15.0,88,0.00,,,1.07,,2013-10-01 03:12:00,
2013-09-30 20:22:00,51.0,48.0,29.86,South,169,7.0,13.0,88,0.00,,,0.90,,2013-10-01 03:22:00,
2013-09-30 20:44:00,51.0,47.0,29.87,SSW,203,8.0,16.0,86,0.00,,,0.90,,2013-10-01 03:44:00,
2013-09-30 20:55:00,51.0,47.0,29.88,South,172,8.0,15.0,85,0.00,,,0.90,,2013-10-01 03:55:00,
2013-09-30 21:14:00,51.0,47.0,29.88,SSE,160,8.0,18.0,86,0.00,,,0.90,,2013-10-01 04:14:00,
2013-09-30 21:24:00,51.0,47.0,29.88,ESE,121,7.0,15.0,87,0.00,,,0.72,,2013-10-01 04:24:00,